createdAt,value
2018-03-03T00:00:04.787Z,52.50
2018-03-03T00:00:36.423Z,52.34
2018-03-03T00:01:08.095Z,52.46
2018-03-03T00:01:39.766Z,52.68
2018-03-03T00:02:11.394Z,52.79
2018-03-03T00:02:43.018Z,52.91
2018-03-03T00:03:14.646Z,52.73
2018-03-03T00:03:46.274Z,52.80
2018-03-03T00:04:17.907Z,52.90
2018-03-03T00:04:49.530Z,52.84
2018-03-03T00:05:21.158Z,52.66
2018-03-03T00:05:52.779Z,52.76
2018-03-03T00:06:24.450Z,52.61
2018-03-03T00:06:56.080Z,52.46
2018-03-03T00:07:27.709Z,52.49
2018-03-03T00:07:59.334Z,52.42
2018-03-03T00:08:30.966Z,52.37
2018-03-03T00:09:02.594Z,52.17
2018-03-03T00:09:34.218Z,52.19
2018-03-03T00:10:05.850Z,52.11
2018-03-03T00:10:37.513Z,52.11
2018-03-03T00:11:10.050Z,51.87
2018-03-03T00:11:41.674Z,51.72
2018-03-03T00:12:13.302Z,51.81
2018-03-03T00:12:44.934Z,51.59
2018-03-03T00:13:16.559Z,52.04
2018-03-03T00:13:48.193Z,51.69
2018-03-03T00:14:19.814Z,51.83
2018-03-03T00:14:51.500Z,51.67
2018-03-03T00:15:23.131Z,51.71
2018-03-03T00:15:54.763Z,51.55
2018-03-03T00:16:26.386Z,52.13
2018-03-03T00:16:58.009Z,52.18
2018-03-03T00:17:29.633Z,52.44
2018-03-03T00:18:01.258Z,52.29
2018-03-03T00:18:32.882Z,52.32
2018-03-03T00:19:04.512Z,52.36
2018-03-03T00:19:36.143Z,52.18
2018-03-03T00:20:07.814Z,52.07
2018-03-03T00:20:39.450Z,51.89
2018-03-03T00:21:11.078Z,52.11
2018-03-03T00:21:42.706Z,52.09
2018-03-03T00:22:14.330Z,52.11
2018-03-03T00:22:45.954Z,52.28
2018-03-03T00:23:17.582Z,52.57
2018-03-03T00:23:49.206Z,51.78
2018-03-03T00:24:20.887Z,52.21
2018-03-03T00:24:52.513Z,52.28
2018-03-03T00:25:24.138Z,52.10
2018-03-03T00:25:55.761Z,52.29
2018-03-03T00:26:27.386Z,52.00
2018-03-03T00:26:59.017Z,51.88
2018-03-03T00:27:30.642Z,52.08
2018-03-03T00:28:02.265Z,51.98
2018-03-03T00:28:33.885Z,52.00
2018-03-03T00:29:05.510Z,51.91
2018-03-03T00:29:37.199Z,52.12
2018-03-03T00:30:08.836Z,52.21
2018-03-03T00:30:40.470Z,51.75
2018-03-03T00:31:12.098Z,51.86
2018-03-03T00:31:43.726Z,51.75
2018-03-03T00:32:15.350Z,51.75
2018-03-03T00:32:46.978Z,51.74
2018-03-03T00:33:18.606Z,51.65
2018-03-03T00:33:50.317Z,51.37
2018-03-03T00:34:21.938Z,51.37
2018-03-03T00:34:53.606Z,51.39
2018-03-03T00:35:25.230Z,51.33
2018-03-03T00:35:56.871Z,51.25
2018-03-03T00:36:28.506Z,51.20
2018-03-03T00:37:00.131Z,51.04
2018-03-03T00:37:31.758Z,51.05
2018-03-03T00:38:03.386Z,50.98
2018-03-03T00:38:35.010Z,50.96
2018-03-03T00:39:06.634Z,50.82
2018-03-03T00:39:38.351Z,50.86
2018-03-03T00:40:09.979Z,50.83
2018-03-03T00:40:41.610Z,50.74
2018-03-03T00:41:13.273Z,50.75
2018-03-03T00:41:44.900Z,50.88
2018-03-03T00:42:16.578Z,51.02
2018-03-03T00:42:48.206Z,50.78
2018-03-03T00:43:19.834Z,50.74
2018-03-03T00:43:51.462Z,50.63
2018-03-03T00:44:23.085Z,50.66
2018-03-03T00:44:54.718Z,50.68
2018-03-03T00:45:26.346Z,50.76
2018-03-03T00:45:57.974Z,50.73
2018-03-03T00:46:29.642Z,50.60
2018-03-03T00:47:01.315Z,50.55
2018-03-03T00:47:32.938Z,50.56
2018-03-03T00:48:04.570Z,50.55
2018-03-03T00:48:36.243Z,50.35
2018-03-03T00:49:07.870Z,50.62
2018-03-03T00:49:39.502Z,50.44
2018-03-03T00:50:11.170Z,50.53
2018-03-03T00:50:42.905Z,50.47
2018-03-03T00:51:14.530Z,50.83
2018-03-03T00:51:46.198Z,51.04
2018-03-03T00:52:17.826Z,50.94
2018-03-03T00:52:49.499Z,50.98
2018-03-03T00:53:21.123Z,51.03
2018-03-03T00:53:52.750Z,51.18
2018-03-03T00:54:24.377Z,51.39
2018-03-03T00:54:56.013Z,51.35
2018-03-03T00:55:27.641Z,51.27
2018-03-03T00:55:59.265Z,51.29
2018-03-03T00:56:30.899Z,51.17
2018-03-03T00:57:02.583Z,51.45
2018-03-03T00:57:34.210Z,51.47
2018-03-03T00:58:05.842Z,51.60
2018-03-03T00:58:37.474Z,51.55
2018-03-03T00:59:09.098Z,51.62
2018-03-03T00:59:40.721Z,51.61
2018-03-03T01:00:12.350Z,51.74
2018-03-03T01:00:43.974Z,51.79
2018-03-03T01:01:15.603Z,51.87
2018-03-03T01:01:47.229Z,51.90
2018-03-03T01:02:18.862Z,51.98
2018-03-03T01:02:50.490Z,51.89
2018-03-03T01:03:22.110Z,51.86
2018-03-03T01:03:53.760Z,51.96
2018-03-03T01:04:25.399Z,52.01
2018-03-03T01:04:57.030Z,52.05
2018-03-03T01:05:28.660Z,52.25
2018-03-03T01:06:00.290Z,52.11
2018-03-03T01:06:31.917Z,52.33
2018-03-03T01:07:03.550Z,52.32
2018-03-03T01:07:35.246Z,52.36
2018-03-03T01:08:06.875Z,52.45
2018-03-03T01:08:38.502Z,52.53
2018-03-03T01:09:10.130Z,52.61
2018-03-03T01:09:41.758Z,52.64
2018-03-03T01:10:13.386Z,52.77
2018-03-03T01:10:45.017Z,52.77
2018-03-03T01:11:16.655Z,52.78
2018-03-03T01:11:48.285Z,52.73
2018-03-03T01:12:19.914Z,52.77
2018-03-03T01:12:51.606Z,52.85
2018-03-03T01:13:23.234Z,52.90
2018-03-03T01:13:54.858Z,52.98
2018-03-03T01:14:26.510Z,52.93
2018-03-03T01:14:58.134Z,53.01
2018-03-03T01:15:29.758Z,53.14
2018-03-03T01:16:01.381Z,53.12
2018-03-03T01:16:33.010Z,53.02
2018-03-03T01:17:04.637Z,53.14
2018-03-03T01:17:36.266Z,53.06
2018-03-03T01:18:07.934Z,53.07
2018-03-03T01:18:39.554Z,53.11
2018-03-03T01:19:11.178Z,53.15
2018-03-03T01:19:42.806Z,53.17
2018-03-03T01:20:14.430Z,53.23
2018-03-03T01:20:46.050Z,53.19
2018-03-03T01:21:17.679Z,53.12
2018-03-03T01:21:49.310Z,53.16
2018-03-03T01:22:20.981Z,53.16
2018-03-03T01:22:52.602Z,53.21
2018-03-03T01:23:24.266Z,53.26
2018-03-03T01:23:55.894Z,53.28
2018-03-03T01:24:27.517Z,53.34
2018-03-03T01:24:59.154Z,53.30
2018-03-03T01:25:30.781Z,53.30
2018-03-03T01:26:02.406Z,53.64
2018-03-03T01:26:34.034Z,53.82
2018-03-03T01:27:05.658Z,53.73
2018-03-03T01:27:37.278Z,53.60
2018-03-03T01:28:08.942Z,53.65
2018-03-03T01:28:40.570Z,53.79
2018-03-03T01:29:12.194Z,53.91
2018-03-03T01:29:43.819Z,53.86
2018-03-03T01:30:15.443Z,53.81
2018-03-03T01:30:47.066Z,53.93
2018-03-03T01:31:18.698Z,54.01
2018-03-03T01:31:50.330Z,54.00
2018-03-03T01:32:21.958Z,54.03
2018-03-03T01:32:53.626Z,53.99
2018-03-03T01:33:25.310Z,54.00
2018-03-03T01:33:56.939Z,54.04
2018-03-03T01:34:28.562Z,53.93
2018-03-03T01:35:00.187Z,53.97
2018-03-03T01:35:31.809Z,53.73
2018-03-03T01:36:03.433Z,53.77
2018-03-03T01:36:35.094Z,53.68
2018-03-03T01:37:06.714Z,53.54
2018-03-03T01:37:38.389Z,53.45
2018-03-03T01:38:10.014Z,53.74
2018-03-03T01:38:41.686Z,53.46
2018-03-03T01:39:13.316Z,53.63
2018-03-03T01:39:44.946Z,53.64
2018-03-03T01:40:16.570Z,53.60
2018-03-03T01:40:48.193Z,53.21
2018-03-03T01:41:19.824Z,53.45
2018-03-03T01:41:51.446Z,53.49
2018-03-03T01:42:23.070Z,53.30
2018-03-03T01:42:54.695Z,53.30
2018-03-03T01:43:26.320Z,53.29
2018-03-03T01:43:57.989Z,53.15
2018-03-03T01:44:29.615Z,53.33
2018-03-03T01:45:01.246Z,53.18
2018-03-03T01:45:32.871Z,53.13
2018-03-03T01:46:04.534Z,53.17
2018-03-03T01:46:36.157Z,53.15
2018-03-03T01:47:07.778Z,53.18
2018-03-03T01:47:39.404Z,53.13
2018-03-03T01:48:11.034Z,53.27
2018-03-03T01:48:42.662Z,53.24
2018-03-03T01:49:14.379Z,53.12
2018-03-03T01:49:46.002Z,53.24
2018-03-03T01:50:17.621Z,53.20
2018-03-03T01:50:49.298Z,53.78
2018-03-03T01:51:20.926Z,53.76
2018-03-03T01:51:52.549Z,53.95
2018-03-03T01:52:24.174Z,53.91
2018-03-03T01:52:55.797Z,54.43
2018-03-03T01:53:27.418Z,54.56
2018-03-03T01:53:59.042Z,54.38
2018-03-03T01:54:30.675Z,54.39
2018-03-03T01:55:02.298Z,54.30
2018-03-03T01:55:33.930Z,54.30
2018-03-03T01:56:05.778Z,54.42
2018-03-03T01:56:37.400Z,54.24
2018-03-03T01:57:09.034Z,54.29
2018-03-03T01:57:40.661Z,54.43
2018-03-03T01:58:12.281Z,54.08
2018-03-03T01:58:43.906Z,54.00
2018-03-03T01:59:15.531Z,54.20
2018-03-03T01:59:47.158Z,54.04
2018-03-03T02:00:18.786Z,54.02
2018-03-03T02:00:50.411Z,53.87
2018-03-03T02:01:22.086Z,53.88
2018-03-03T02:01:53.715Z,54.08
2018-03-03T02:02:25.338Z,54.00
2018-03-03T02:02:56.970Z,53.82
2018-03-03T02:03:28.594Z,53.93
2018-03-03T02:04:00.217Z,53.83
2018-03-03T02:04:31.842Z,54.03
2018-03-03T02:05:03.465Z,54.22
2018-03-03T02:05:35.094Z,53.89
2018-03-03T02:06:06.718Z,53.99
2018-03-03T02:06:38.346Z,54.38
2018-03-03T02:07:09.975Z,54.32
2018-03-03T02:07:41.599Z,54.10
2018-03-03T02:08:13.222Z,54.29
2018-03-03T02:08:44.845Z,54.34
2018-03-03T02:09:16.468Z,54.29
2018-03-03T02:09:48.095Z,54.74
2018-03-03T02:10:19.731Z,54.61
2018-03-03T02:10:51.365Z,54.97
2018-03-03T02:11:23.046Z,54.80
2018-03-03T02:11:54.670Z,54.71
2018-03-03T02:12:26.298Z,54.94
2018-03-03T02:12:57.926Z,54.70
2018-03-03T02:13:29.552Z,54.64
2018-03-03T02:14:01.178Z,54.58
2018-03-03T02:14:32.805Z,54.63
2018-03-03T02:15:04.425Z,54.64
2018-03-03T02:15:36.050Z,54.64
2018-03-03T02:16:07.674Z,54.83
2018-03-03T02:16:39.302Z,54.68
2018-03-03T02:17:10.926Z,54.89
2018-03-03T02:17:42.549Z,54.80
2018-03-03T02:18:14.181Z,54.88
2018-03-03T02:18:45.814Z,54.85
2018-03-03T02:19:17.482Z,55.10
2018-03-03T02:19:49.108Z,55.14
2018-03-03T02:20:20.737Z,55.21
2018-03-03T02:20:52.411Z,55.11
2018-03-03T02:21:24.030Z,55.14
2018-03-03T02:21:55.654Z,55.12
2018-03-03T02:22:27.278Z,55.24
2018-03-03T02:22:58.908Z,55.34
2018-03-03T02:23:30.537Z,55.47
2018-03-03T02:24:02.171Z,55.46
2018-03-03T02:24:33.806Z,55.37
2018-03-03T02:25:05.430Z,55.30
2018-03-03T02:25:37.059Z,55.28
2018-03-03T02:26:08.726Z,55.58
2018-03-03T02:26:40.355Z,55.49
2018-03-03T02:27:11.974Z,55.44
2018-03-03T02:27:43.608Z,55.54
2018-03-03T02:28:15.239Z,55.54
2018-03-03T02:28:46.866Z,55.44
2018-03-03T02:29:18.494Z,55.46
2018-03-03T02:29:50.174Z,55.44
2018-03-03T02:30:21.783Z,55.59
2018-03-03T02:30:53.407Z,55.79
2018-03-03T02:31:25.043Z,55.55
2018-03-03T02:31:56.667Z,55.64
2018-03-03T02:32:28.290Z,55.65
2018-03-03T02:32:59.914Z,55.75
2018-03-03T02:33:31.544Z,55.87
2018-03-03T02:34:03.176Z,55.94
2018-03-03T02:34:34.811Z,55.92
2018-03-03T02:35:06.450Z,55.95
2018-03-03T02:35:38.092Z,56.02
2018-03-03T02:36:09.722Z,55.93
2018-03-03T02:36:41.363Z,55.98
2018-03-03T02:37:12.990Z,55.92
2018-03-03T02:37:44.618Z,55.99
2018-03-03T02:38:16.238Z,56.00
2018-03-03T02:38:47.857Z,56.10
2018-03-03T02:39:19.485Z,56.09
2018-03-03T02:39:51.114Z,56.17
2018-03-03T02:40:22.742Z,56.39
2018-03-03T02:40:54.370Z,56.27
2018-03-03T02:41:26.034Z,56.15
2018-03-03T02:41:57.658Z,56.19
2018-03-03T02:42:29.297Z,56.17
2018-03-03T02:43:00.934Z,56.19
2018-03-03T02:43:32.566Z,56.27
2018-03-03T02:44:04.192Z,56.26
2018-03-03T02:44:35.821Z,56.65
2018-03-03T02:45:07.453Z,56.54
2018-03-03T02:45:39.090Z,56.29
2018-03-03T02:46:10.722Z,56.37
2018-03-03T02:46:42.351Z,56.47
2018-03-03T02:47:13.974Z,56.47
2018-03-03T02:47:45.594Z,56.41
2018-03-03T02:48:17.220Z,56.57
2018-03-03T02:48:48.854Z,56.54
2018-03-03T02:49:20.482Z,56.52
2018-03-03T02:49:52.110Z,56.47
2018-03-03T02:50:23.738Z,56.58
2018-03-03T02:50:55.370Z,56.54
2018-03-03T02:51:27.039Z,56.66
2018-03-03T02:51:58.662Z,56.50
2018-03-03T02:52:30.291Z,56.51
2018-03-03T02:53:01.923Z,56.31
2018-03-03T02:53:33.550Z,56.12
2018-03-03T02:54:05.182Z,56.41
2018-03-03T02:54:36.807Z,56.14
2018-03-03T02:55:08.435Z,56.11
2018-03-03T02:55:40.057Z,56.18
2018-03-03T02:56:11.686Z,56.11
2018-03-03T02:56:43.350Z,56.16
2018-03-03T02:57:14.974Z,56.25
2018-03-03T02:57:46.597Z,56.09
2018-03-03T02:58:18.223Z,55.75
2018-03-03T02:58:49.857Z,55.78
2018-03-03T02:59:21.492Z,55.67
2018-03-03T02:59:53.118Z,55.41
2018-03-03T03:00:24.747Z,55.45
2018-03-03T03:00:56.377Z,55.58
2018-03-03T03:01:28.066Z,55.73
2018-03-03T03:01:59.697Z,55.49
2018-03-03T03:02:31.322Z,55.25
2018-03-03T03:03:02.951Z,55.38
2018-03-03T03:03:34.581Z,55.15
2018-03-03T03:04:06.212Z,55.03
2018-03-03T03:04:37.842Z,54.72
2018-03-03T03:05:09.506Z,54.80
2018-03-03T03:05:41.137Z,54.73
2018-03-03T03:06:12.762Z,54.71
2018-03-03T03:06:44.445Z,54.62
2018-03-03T03:07:16.075Z,54.57
2018-03-03T03:07:47.714Z,54.68
2018-03-03T03:08:19.349Z,54.48
2018-03-03T03:08:50.975Z,54.65
2018-03-03T03:09:22.598Z,54.48
2018-03-03T03:09:54.226Z,54.69
2018-03-03T03:10:25.856Z,54.22
2018-03-03T03:10:57.490Z,54.34
2018-03-03T03:11:29.124Z,54.16
2018-03-03T03:12:00.789Z,54.22
2018-03-03T03:12:32.423Z,54.02
2018-03-03T03:13:04.059Z,54.09
2018-03-03T03:13:35.726Z,54.18
2018-03-03T03:14:07.355Z,54.26
2018-03-03T03:14:38.978Z,54.21
2018-03-03T03:15:10.602Z,54.13
2018-03-03T03:15:42.226Z,53.99
2018-03-03T03:16:13.854Z,53.86
2018-03-03T03:16:45.486Z,54.01
2018-03-03T03:17:17.166Z,53.92
2018-03-03T03:17:48.817Z,53.89
2018-03-03T03:18:20.446Z,54.00
2018-03-03T03:18:52.078Z,54.03
2018-03-03T03:19:23.710Z,53.78
2018-03-03T03:19:55.338Z,53.76
2018-03-03T03:20:26.966Z,53.99
2018-03-03T03:20:58.594Z,54.01
2018-03-03T03:21:30.221Z,54.04
2018-03-03T03:22:01.846Z,54.04
2018-03-03T03:22:33.513Z,54.10
2018-03-03T03:23:05.150Z,54.05
2018-03-03T03:23:36.798Z,54.07
2018-03-03T03:24:08.438Z,54.07
2018-03-03T03:24:40.066Z,54.42
2018-03-03T03:25:11.694Z,53.96
2018-03-03T03:25:43.323Z,53.99
2018-03-03T03:26:14.951Z,53.77
2018-03-03T03:26:46.623Z,54.05
2018-03-03T03:27:18.258Z,54.11
2018-03-03T03:27:49.930Z,54.18
2018-03-03T03:28:21.558Z,54.12
2018-03-03T03:28:53.182Z,54.07
2018-03-03T03:29:24.806Z,53.96
2018-03-03T03:29:56.430Z,54.10
2018-03-03T03:30:28.060Z,54.48
2018-03-03T03:30:59.692Z,54.62
2018-03-03T03:31:31.328Z,54.84
2018-03-03T03:32:02.958Z,55.08
2018-03-03T03:32:34.590Z,54.78
2018-03-03T03:33:06.254Z,55.26
2018-03-03T03:33:37.877Z,55.05
2018-03-03T03:34:09.502Z,55.16
2018-03-03T03:34:41.133Z,55.21
2018-03-03T03:35:12.758Z,55.34
2018-03-03T03:35:44.384Z,55.38
2018-03-03T03:36:16.014Z,55.43
2018-03-03T03:36:47.644Z,55.37
2018-03-03T03:37:19.273Z,55.48
2018-03-03T03:37:50.893Z,55.39
2018-03-03T03:38:22.575Z,55.42
2018-03-03T03:38:54.203Z,55.44
2018-03-03T03:39:25.830Z,55.58
2018-03-03T03:39:57.506Z,55.58
2018-03-03T03:40:29.135Z,55.48
2018-03-03T03:41:00.762Z,55.58
2018-03-03T03:41:32.385Z,55.52
2018-03-03T03:42:04.014Z,55.49
2018-03-03T03:42:35.640Z,55.32
2018-03-03T03:43:07.271Z,55.43
2018-03-03T03:43:38.952Z,55.47
2018-03-03T03:44:10.582Z,55.36
2018-03-03T03:44:42.202Z,55.43
2018-03-03T03:45:13.825Z,55.58
2018-03-03T03:45:45.452Z,55.51
2018-03-03T03:46:17.082Z,55.59
2018-03-03T03:46:48.709Z,55.45
2018-03-03T03:47:20.338Z,55.41
2018-03-03T03:47:51.970Z,55.51
2018-03-03T03:48:23.594Z,55.64
2018-03-03T03:48:55.265Z,55.51
2018-03-03T03:49:26.885Z,55.77
2018-03-03T03:49:58.505Z,55.66
2018-03-03T03:50:30.135Z,55.73
2018-03-03T03:51:01.765Z,55.53
2018-03-03T03:51:33.385Z,55.79
2018-03-03T03:52:05.014Z,55.66
2018-03-03T03:52:36.642Z,55.74
2018-03-03T03:53:08.273Z,55.68
2018-03-03T03:53:39.902Z,55.89
2018-03-03T03:54:11.586Z,55.99
2018-03-03T03:54:43.210Z,56.07
2018-03-03T03:55:14.831Z,55.94
2018-03-03T03:55:46.464Z,56.16
2018-03-03T03:56:18.098Z,56.21
2018-03-03T03:56:49.726Z,56.38
2018-03-03T03:57:21.354Z,56.20
2018-03-03T03:57:52.982Z,56.30
2018-03-03T03:58:24.606Z,56.48
2018-03-03T03:58:56.235Z,56.35
2018-03-03T03:59:27.909Z,56.61
2018-03-03T03:59:59.530Z,56.54
2018-03-03T04:00:31.198Z,56.60
2018-03-03T04:01:02.826Z,56.59
2018-03-03T04:01:34.498Z,56.66
2018-03-03T04:02:06.121Z,56.62
2018-03-03T04:02:37.741Z,56.71
2018-03-03T04:03:09.370Z,56.70
2018-03-03T04:03:41.382Z,56.69
2018-03-03T04:04:13.006Z,56.63
2018-03-03T04:04:44.657Z,56.56
2018-03-03T04:05:16.287Z,56.56
2018-03-03T04:05:47.947Z,56.60
2018-03-03T04:06:19.578Z,56.63
2018-03-03T04:06:51.202Z,56.64
2018-03-03T04:07:22.828Z,56.67
2018-03-03T04:07:54.450Z,56.58
2018-03-03T04:08:26.074Z,56.58
2018-03-03T04:08:57.703Z,56.57
2018-03-03T04:09:29.370Z,56.60
2018-03-03T04:10:00.994Z,56.59
2018-03-03T04:10:32.625Z,56.66
2018-03-03T04:11:04.250Z,56.62
2018-03-03T04:11:35.879Z,56.62
2018-03-03T04:12:07.502Z,56.58
2018-03-03T04:12:39.166Z,56.60
2018-03-03T04:13:10.792Z,56.48
2018-03-03T04:13:42.423Z,56.44
2018-03-03T04:14:14.047Z,56.39
2018-03-03T04:14:45.670Z,56.25
2018-03-03T04:15:17.319Z,56.16
2018-03-03T04:15:48.941Z,56.10
2018-03-03T04:16:20.566Z,55.84
2018-03-03T04:16:52.198Z,55.75
2018-03-03T04:17:23.869Z,55.68
2018-03-03T04:17:55.494Z,55.58
2018-03-03T04:18:27.122Z,55.55
2018-03-03T04:18:58.746Z,55.38
2018-03-03T04:19:30.370Z,55.31
2018-03-03T04:20:01.994Z,54.95
2018-03-03T04:20:33.618Z,55.02
2018-03-03T04:21:05.242Z,54.83
2018-03-03T04:21:36.886Z,54.83
2018-03-03T04:22:08.514Z,54.78
2018-03-03T04:22:40.190Z,54.55
2018-03-03T04:23:11.820Z,54.59
2018-03-03T04:23:43.466Z,54.62
2018-03-03T04:24:15.144Z,54.59
2018-03-03T04:24:46.785Z,54.54
2018-03-03T04:25:18.423Z,54.46
2018-03-03T04:25:50.073Z,54.45
2018-03-03T04:26:21.714Z,54.33
2018-03-03T04:26:53.358Z,54.35
2018-03-03T04:27:25.037Z,54.46
2018-03-03T04:27:56.678Z,54.22
2018-03-03T04:28:28.316Z,54.15
2018-03-03T04:28:59.970Z,54.09
2018-03-03T04:29:31.674Z,53.99
2018-03-03T04:30:03.298Z,53.98
2018-03-03T04:30:34.942Z,53.83
2018-03-03T04:31:06.577Z,53.76
2018-03-03T04:31:38.218Z,53.67
2018-03-03T04:32:09.862Z,53.74
2018-03-03T04:32:41.507Z,53.65
2018-03-03T04:33:13.150Z,53.63
2018-03-03T04:33:44.793Z,53.45
2018-03-03T04:34:16.414Z,53.14
2018-03-03T04:34:48.082Z,53.26
2018-03-03T04:35:19.731Z,53.05
2018-03-03T04:35:51.373Z,52.99
2018-03-03T04:36:23.020Z,52.81
2018-03-03T04:36:54.642Z,52.85
2018-03-03T04:37:26.287Z,52.54
2018-03-03T04:37:57.931Z,52.51
2018-03-03T04:38:29.578Z,52.42
2018-03-03T04:39:01.207Z,52.44
2018-03-03T04:39:32.833Z,52.38
2018-03-03T04:40:04.498Z,52.11
2018-03-03T04:40:36.125Z,52.30
2018-03-03T04:41:07.756Z,52.28
2018-03-03T04:41:39.386Z,52.57
2018-03-03T04:42:11.019Z,52.59
2018-03-03T04:42:42.649Z,52.61
2018-03-03T04:43:14.278Z,52.53
2018-03-03T04:43:45.902Z,52.53
2018-03-03T04:44:17.546Z,53.37
2018-03-03T04:44:49.174Z,53.16
2018-03-03T04:45:20.838Z,53.26
2018-03-03T04:45:52.467Z,53.58
2018-03-03T04:46:24.113Z,53.14
2018-03-03T04:46:55.778Z,52.82
2018-03-03T04:47:27.428Z,52.87
2018-03-03T04:47:59.070Z,52.69
2018-03-03T04:48:30.702Z,52.97
2018-03-03T04:49:02.344Z,52.35
2018-03-03T04:49:33.968Z,52.21
2018-03-03T04:50:05.606Z,52.46
2018-03-03T04:50:37.286Z,52.73
2018-03-03T04:51:09.031Z,52.93
2018-03-03T04:51:40.654Z,52.92
2018-03-03T04:52:12.293Z,53.22
2018-03-03T04:52:43.939Z,53.08
2018-03-03T04:53:15.574Z,52.97
2018-03-03T04:53:47.213Z,53.18
2018-03-03T04:54:18.857Z,53.49
2018-03-03T04:54:50.494Z,53.45
2018-03-03T04:55:22.192Z,53.52
2018-03-03T04:55:53.833Z,53.78
2018-03-03T04:56:25.474Z,53.73
2018-03-03T04:56:57.118Z,53.66
2018-03-03T04:57:28.753Z,53.82
2018-03-03T04:58:00.390Z,53.87
2018-03-03T04:58:51.970Z,53.92
2018-03-03T04:59:44.522Z,53.78
2018-03-03T05:00:36.005Z,53.82
2018-03-03T05:01:20.439Z,53.90
2018-03-03T05:01:56.838Z,54.08
2018-03-03T05:02:45.259Z,54.00
2018-03-03T05:03:20.986Z,54.21
2018-03-03T05:03:58.305Z,54.26
2018-03-03T05:04:45.658Z,54.41
2018-03-03T05:06:24.231Z,54.83
2018-03-03T05:07:12.610Z,54.79
2018-03-03T05:07:46.750Z,54.87
2018-03-03T05:08:20.934Z,55.02
2018-03-03T05:08:52.582Z,55.61
2018-03-03T05:09:24.221Z,55.86
2018-03-03T05:09:55.866Z,55.79
2018-03-03T05:10:27.498Z,55.91
2018-03-03T05:10:59.133Z,56.01
2018-03-03T05:11:30.786Z,56.16
2018-03-03T05:12:02.421Z,56.00
2018-03-03T05:12:34.066Z,56.10
2018-03-03T05:13:20.621Z,56.20
2018-03-03T05:13:58.083Z,56.25
2018-03-03T05:14:45.627Z,56.35
2018-03-03T05:15:34.953Z,56.20
2018-03-03T05:16:12.362Z,56.26
2018-03-03T05:17:00.705Z,56.33
2018-03-03T05:17:40.175Z,56.33
2018-03-03T05:18:28.622Z,56.35
2018-03-03T05:19:06.120Z,56.48
2018-03-03T05:19:43.449Z,56.41
2018-03-03T05:20:26.861Z,56.46
2018-03-03T05:21:14.370Z,56.39
2018-03-03T05:22:04.862Z,56.41
2018-03-03T05:22:42.382Z,56.42
2018-03-03T05:24:15.831Z,56.45
2018-03-03T05:24:57.238Z,56.81
2018-03-03T05:25:34.570Z,56.74
2018-03-03T05:26:11.814Z,56.75
2018-03-03T05:26:58.321Z,56.69
2018-03-03T05:27:46.758Z,56.92
2018-03-03T05:29:19.350Z,57.07
2018-03-03T05:30:07.650Z,57.07
2018-03-03T05:30:46.826Z,57.08
2018-03-03T05:31:24.070Z,57.19
2018-03-03T05:32:08.502Z,57.01
2018-03-03T05:32:59.967Z,57.02
2018-03-03T05:33:37.318Z,56.93
2018-03-03T05:34:14.621Z,56.84
2018-03-03T05:34:52.002Z,56.89
2018-03-03T05:35:39.475Z,56.91
2018-03-03T05:36:16.778Z,56.79
2018-03-03T05:37:51.974Z,56.33
2018-03-03T05:38:30.155Z,56.29
2018-03-03T05:39:07.618Z,56.05
2018-03-03T05:39:47.838Z,55.81
2018-03-03T05:40:25.197Z,55.65
2018-03-03T05:41:15.674Z,55.54
2018-03-03T05:41:52.978Z,55.68
2018-03-03T05:42:30.128Z,55.64
2018-03-03T05:43:06.639Z,55.57
2018-03-03T05:43:44.146Z,55.44
2018-03-03T05:44:21.398Z,55.29
2018-03-03T05:44:58.793Z,55.36
2018-03-03T05:45:37.118Z,55.09
2018-03-03T05:46:14.495Z,55.03
2018-03-03T05:47:04.838Z,54.83
2018-03-03T05:47:42.214Z,54.68
2018-03-03T05:48:18.805Z,54.67
2018-03-03T05:48:56.207Z,54.52
2018-03-03T05:49:39.754Z,54.46
2018-03-03T05:50:17.058Z,54.33
2018-03-03T05:51:09.505Z,54.36
2018-03-03T05:51:46.930Z,54.15
2018-03-03T05:52:19.422Z,54.14
2018-03-03T05:52:56.702Z,54.17
2018-03-03T05:53:38.262Z,53.83
2018-03-03T05:54:15.590Z,53.62
2018-03-03T05:54:52.946Z,53.67
2018-03-03T05:55:40.282Z,53.35
2018-03-03T05:57:21.984Z,53.08
2018-03-03T05:59:04.506Z,52.75
2018-03-03T05:59:41.953Z,52.62
2018-03-03T06:00:27.390Z,52.83
2018-03-03T06:01:05.097Z,52.71
2018-03-03T06:01:42.374Z,52.84
2018-03-03T06:02:19.723Z,52.80
2018-03-03T06:02:56.991Z,52.64
2018-03-03T06:03:44.330Z,52.84
2018-03-03T06:04:36.901Z,53.11
2018-03-03T06:05:22.478Z,53.08
2018-03-03T06:06:14.873Z,52.97
2018-03-03T06:06:56.425Z,52.91
2018-03-03T06:07:31.114Z,52.92
2018-03-03T06:08:08.503Z,52.90
2018-03-03T06:08:55.010Z,53.32
2018-03-03T06:09:29.140Z,53.52
2018-03-03T06:10:03.457Z,53.49
2018-03-03T06:10:49.958Z,53.44
2018-03-03T06:11:21.606Z,53.51
2018-03-03T06:11:53.246Z,53.80
2018-03-03T06:12:24.866Z,53.58
2018-03-03T06:12:56.529Z,53.43
2018-03-03T06:13:28.157Z,53.38
2018-03-03T06:13:59.806Z,53.48
2018-03-03T06:14:31.437Z,53.50
2018-03-03T06:15:03.074Z,53.52
2018-03-03T06:15:34.704Z,53.73
2018-03-03T06:16:06.334Z,53.65
2018-03-03T06:16:37.978Z,53.63
2018-03-03T06:17:09.645Z,53.65
2018-03-03T06:17:41.266Z,53.72
2018-03-03T06:18:12.897Z,53.76
2018-03-03T06:18:44.547Z,53.85
2018-03-03T06:19:16.214Z,53.95
2018-03-03T06:19:47.833Z,53.92
2018-03-03T06:20:19.457Z,53.95
2018-03-03T06:20:51.089Z,53.90
2018-03-03T06:21:22.720Z,53.96
2018-03-03T06:21:54.358Z,54.09
2018-03-03T06:22:25.998Z,54.15
2018-03-03T06:22:57.645Z,54.20
2018-03-03T06:23:29.314Z,54.25
2018-03-03T06:24:00.942Z,54.23
2018-03-03T06:24:32.604Z,54.23
2018-03-03T06:25:04.267Z,54.38
2018-03-03T06:25:35.894Z,54.43
2018-03-03T06:26:07.515Z,54.66
2018-03-03T06:26:39.150Z,54.82
2018-03-03T06:27:10.773Z,55.13
2018-03-03T06:27:42.396Z,55.00
2018-03-03T06:28:14.017Z,55.03
2018-03-03T06:28:45.689Z,55.24
2018-03-03T06:29:17.314Z,55.29
2018-03-03T06:29:48.942Z,55.51
2018-03-03T06:30:20.622Z,55.54
2018-03-03T06:30:52.250Z,55.65
2018-03-03T06:31:23.875Z,55.74
2018-03-03T06:31:55.497Z,55.86
2018-03-03T06:32:27.125Z,55.87
2018-03-03T06:32:58.754Z,55.94
2018-03-03T06:33:30.374Z,56.01
2018-03-03T06:34:02.043Z,56.11
2018-03-03T06:34:33.670Z,56.09
2018-03-03T06:35:05.294Z,56.38
2018-03-03T06:35:36.917Z,56.31
2018-03-03T06:36:08.542Z,56.51
2018-03-03T06:36:40.171Z,56.70
2018-03-03T06:37:11.797Z,56.63
2018-03-03T06:37:43.421Z,56.61
2018-03-03T06:38:15.050Z,56.63
2018-03-03T06:38:46.678Z,56.65
2018-03-03T06:39:18.342Z,56.89
2018-03-03T06:39:49.967Z,56.69
2018-03-03T06:40:21.589Z,56.81
2018-03-03T06:40:53.210Z,56.92
2018-03-03T06:41:24.838Z,56.88
2018-03-03T06:41:56.466Z,57.04
2018-03-03T06:42:28.090Z,56.94
2018-03-03T06:42:59.718Z,57.13
2018-03-03T06:43:31.342Z,57.16
2018-03-03T06:44:03.018Z,57.07
2018-03-03T06:44:34.670Z,57.11
2018-03-03T06:45:06.302Z,57.27
2018-03-03T06:45:37.937Z,57.14
2018-03-03T06:46:09.604Z,57.23
2018-03-03T06:46:41.238Z,57.31
2018-03-03T06:47:12.874Z,57.29
2018-03-03T06:47:44.502Z,57.29
2018-03-03T06:48:16.122Z,57.30
2018-03-03T06:48:47.744Z,57.51
2018-03-03T06:49:19.414Z,57.41
2018-03-03T06:49:51.054Z,57.54
2018-03-03T06:50:22.685Z,57.56
2018-03-03T06:50:54.313Z,57.85
2018-03-03T06:51:25.934Z,57.88
2018-03-03T06:51:57.554Z,57.90
2018-03-03T06:52:29.177Z,57.94
2018-03-03T06:53:00.808Z,57.59
2018-03-03T06:53:32.438Z,57.68
2018-03-03T06:54:04.079Z,57.29
2018-03-03T06:54:35.714Z,57.12
2018-03-03T06:55:07.344Z,57.24
2018-03-03T06:55:39.003Z,56.81
2018-03-03T06:56:10.630Z,56.61
2018-03-03T06:56:42.294Z,56.47
2018-03-03T06:57:13.926Z,56.52
2018-03-03T06:57:45.563Z,56.57
2018-03-03T06:58:17.245Z,56.61
2018-03-03T06:58:48.866Z,56.59
2018-03-03T06:59:20.490Z,56.78
2018-03-03T06:59:52.110Z,56.39
2018-03-03T07:00:23.738Z,56.43
2018-03-03T07:00:55.365Z,56.45
2018-03-03T07:01:26.995Z,56.30
2018-03-03T07:01:58.618Z,56.44
2018-03-03T07:02:30.265Z,56.21
2018-03-03T07:03:01.891Z,56.13
2018-03-03T07:03:33.560Z,56.13
2018-03-03T07:04:05.245Z,56.15
2018-03-03T07:04:36.878Z,55.97
2018-03-03T07:05:08.506Z,55.99
2018-03-03T07:05:40.129Z,55.71
2018-03-03T07:06:11.754Z,55.77
2018-03-03T07:06:43.383Z,55.46
2018-03-03T07:07:15.006Z,55.87
2018-03-03T07:07:46.684Z,55.51